createdAt,value
2017-10-25T05:53:55.889Z,15.30
2017-10-25T05:56:23.460Z,14.90
2017-10-25T05:58:51.045Z,14.90
2017-10-25T06:01:18.627Z,14.90
2017-10-25T06:03:46.210Z,14.90
2017-10-25T06:06:13.745Z,14.90
2017-10-25T06:08:42.067Z,14.80
2017-10-25T06:11:09.649Z,14.90
2017-10-25T06:13:37.177Z,14.80
2017-10-25T06:16:04.770Z,14.70
2017-10-25T06:18:33.065Z,14.80
2017-10-25T06:21:00.655Z,14.80
2017-10-25T06:23:28.861Z,14.70
2017-10-25T06:25:56.410Z,14.80
2017-10-25T06:28:23.942Z,14.80
2017-10-25T06:30:51.490Z,14.80
2017-10-25T06:33:19.056Z,14.80
2017-10-25T06:35:46.631Z,14.80
2017-10-25T06:38:14.158Z,14.70
2017-10-25T06:40:42.465Z,14.70
2017-10-25T06:43:10.878Z,14.70
2017-10-25T06:45:38.402Z,14.70
2017-10-25T06:48:06.732Z,14.70
2017-10-25T06:50:34.274Z,14.70
2017-10-25T06:53:01.859Z,14.70
2017-10-25T06:55:29.391Z,14.70
2017-10-25T06:57:57.056Z,14.80
2017-10-25T07:00:24.595Z,14.80
2017-10-25T07:02:52.181Z,14.80
2017-10-25T07:05:19.713Z,14.80
2017-10-25T07:07:47.273Z,14.90
2017-10-25T07:10:14.862Z,14.90
2017-10-25T07:12:42.410Z,15.00
2017-10-25T07:15:10.739Z,15.00
2017-10-25T07:17:38.289Z,15.00
2017-10-25T07:20:06.611Z,15.00
2017-10-25T07:22:34.193Z,15.00
2017-10-25T07:25:01.730Z,15.00
2017-10-25T07:27:29.298Z,15.00
2017-10-25T07:29:56.822Z,15.00
2017-10-25T07:32:24.350Z,15.10
2017-10-25T07:34:51.905Z,15.10
2017-10-25T07:37:20.230Z,15.10
2017-10-25T07:39:47.807Z,15.10
2017-10-25T07:42:15.373Z,15.20
2017-10-25T07:44:42.905Z,15.20
2017-10-25T07:47:11.256Z,15.20
2017-10-25T07:49:38.774Z,15.20
2017-10-25T07:52:07.117Z,15.30
2017-10-25T07:54:34.654Z,15.30
2017-10-25T07:57:02.860Z,15.30
2017-10-25T07:59:30.537Z,15.30
2017-10-25T08:01:58.081Z,15.30
2017-10-25T08:04:25.652Z,15.30
2017-10-25T08:06:53.233Z,15.30
2017-10-25T08:09:20.773Z,15.20
2017-10-25T08:11:49.070Z,15.30
2017-10-25T08:14:17.417Z,15.30
2017-10-25T08:16:44.961Z,15.30
2017-10-25T08:19:12.522Z,15.30
2017-10-25T08:21:40.159Z,15.30
2017-10-25T08:24:08.462Z,15.30
2017-10-25T08:26:36.798Z,15.40
2017-10-25T08:29:04.421Z,15.40
2017-10-25T08:31:32.151Z,15.40
2017-10-25T08:33:59.747Z,15.40
2017-10-25T08:36:27.278Z,15.40
2017-10-25T08:38:54.852Z,15.40
2017-10-25T08:41:22.423Z,15.50
2017-10-25T08:43:49.950Z,15.50
2017-10-25T08:46:17.584Z,15.40
2017-10-25T08:48:45.187Z,15.50
2017-10-25T08:51:13.497Z,15.40
2017-10-25T08:53:41.797Z,15.40
2017-10-25T08:56:09.387Z,15.40
2017-10-25T08:58:37.159Z,15.40
2017-10-25T09:01:05.534Z,15.50
2017-10-25T09:03:33.859Z,15.50
2017-10-25T09:06:01.451Z,15.50
2017-10-25T09:08:29.031Z,15.60
2017-10-25T09:10:56.570Z,15.60
2017-10-25T09:13:24.105Z,15.70
2017-10-25T09:15:52.440Z,15.90
2017-10-25T09:18:20.010Z,15.90
2017-10-25T09:20:47.530Z,16.00
2017-10-25T09:23:15.841Z,16.00
2017-10-25T09:25:44.512Z,16.00
2017-10-25T09:28:12.047Z,16.00
2017-10-25T09:30:39.581Z,16.00
2017-10-25T09:33:08.045Z,16.10
2017-10-25T09:35:36.667Z,16.30
2017-10-25T09:38:04.327Z,16.30
2017-10-25T09:40:31.964Z,16.30
2017-10-25T09:43:00.606Z,16.50
2017-10-25T09:45:28.647Z,16.50
2017-10-25T09:47:56.385Z,16.60
2017-10-25T09:50:24.172Z,16.60
2017-10-25T09:52:53.366Z,16.70
2017-10-25T09:55:21.148Z,16.60
2017-10-25T09:57:53.397Z,16.70
2017-10-25T10:03:10.625Z,16.70
2017-10-25T10:05:45.442Z,16.70
2017-10-25T10:08:31.409Z,16.70
2017-10-25T10:25:40.092Z,17.00
2017-10-25T10:28:14.262Z,17.00
2017-10-25T10:30:42.144Z,17.00
2017-10-25T10:33:09.882Z,16.90
2017-10-25T10:35:38.268Z,16.90
2017-10-25T10:38:09.752Z,16.90
2017-10-25T10:40:47.518Z,17.00
2017-10-25T10:43:21.715Z,17.00
2017-10-25T10:46:01.025Z,17.00
2017-10-25T10:48:28.839Z,17.20
2017-10-25T10:51:00.914Z,17.20
2017-10-25T10:53:31.160Z,17.20
2017-10-25T10:58:55.337Z,17.20
2017-10-25T11:01:27.593Z,17.20
2017-10-25T11:03:56.464Z,17.10
2017-10-25T11:06:24.064Z,17.10
2017-10-25T11:08:51.662Z,16.90
2017-10-25T11:11:23.623Z,16.90
2017-10-25T11:13:56.446Z,16.90
2017-10-25T11:16:24.102Z,16.90
2017-10-25T11:21:38.154Z,16.80
2017-10-25T11:24:10.551Z,16.70
2017-10-25T11:26:38.224Z,16.70
2017-10-25T11:29:18.969Z,16.80
2017-10-25T11:32:16.699Z,16.80
2017-10-25T11:37:33.036Z,16.80
2017-10-25T11:42:53.879Z,16.80
2017-10-25T11:45:24.341Z,16.80
2017-10-25T11:48:06.520Z,16.80
2017-10-25T11:50:34.266Z,16.80
2017-10-25T11:53:01.807Z,16.80
2017-10-25T11:55:29.353Z,16.70
2017-10-25T11:57:56.929Z,16.70
2017-10-25T12:00:24.467Z,16.70
2017-10-25T12:02:52.022Z,16.70
2017-10-25T12:05:33.079Z,16.70
2017-10-25T12:08:13.401Z,16.70
2017-10-25T12:10:48.046Z,16.70
2017-10-25T12:13:16.459Z,16.70
2017-10-25T12:15:45.020Z,16.70
2017-10-25T12:18:12.738Z,16.70
2017-10-25T12:20:40.538Z,16.70
2017-10-25T12:26:00.127Z,16.60
2017-10-25T12:28:36.619Z,16.60
2017-10-25T12:31:04.474Z,16.70
2017-10-25T13:54:08.904Z,16.80
2017-10-25T14:02:17.699Z,16.90
2017-10-25T14:04:54.031Z,16.90
2017-10-25T14:07:27.363Z,16.90
2017-10-25T14:10:09.117Z,16.80
2017-10-25T14:25:37.220Z,16.90
2017-10-25T14:31:25.557Z,17.00
2017-10-25T14:37:11.663Z,17.00
2017-10-25T14:42:48.400Z,16.90
2017-10-25T14:45:15.960Z,16.80
2017-10-25T14:47:43.491Z,16.80
2017-10-25T14:50:31.498Z,16.80
2017-10-25T14:56:46.208Z,16.70
2017-10-25T14:59:22.328Z,16.60
2017-10-25T15:02:20.811Z,16.50
2017-10-25T15:04:49.871Z,16.40
2017-10-25T15:07:22.249Z,16.40
2017-10-25T15:12:54.193Z,16.20
2017-10-25T15:15:33.136Z,16.30
2017-10-25T15:18:07.313Z,16.20
2017-10-25T15:20:43.968Z,16.20
2017-10-25T15:23:11.854Z,16.20
2017-10-25T15:25:40.564Z,16.10
2017-10-25T15:28:09.106Z,16.00
2017-10-25T15:30:38.615Z,15.90
2017-10-25T15:33:09.197Z,15.90
2017-10-25T15:41:09.963Z,15.80
2017-10-25T15:43:42.643Z,15.70
2017-10-25T15:46:16.070Z,15.60
2017-10-25T15:48:44.221Z,15.50
2017-10-25T15:51:12.505Z,15.50
2017-10-25T15:53:40.130Z,15.40
2017-10-25T15:56:14.129Z,15.30
2017-10-25T15:58:42.668Z,15.30
2017-10-25T16:01:14.717Z,15.30
2017-10-25T16:03:49.915Z,15.20
2017-10-25T16:06:24.227Z,15.20
2017-10-25T16:08:59.871Z,15.10
2017-10-25T16:11:33.682Z,15.10
2017-10-25T16:14:09.558Z,15.10
2017-10-25T16:16:47.797Z,15.10
2017-10-25T16:19:24.070Z,15.10
2017-10-25T16:22:06.333Z,15.10
2017-10-25T16:24:40.033Z,15.00
2017-10-25T16:27:16.985Z,15.00
2017-10-25T16:29:46.247Z,15.00
2017-10-25T16:32:24.125Z,15.00
2017-10-25T16:34:58.576Z,15.00
2017-10-25T16:37:30.924Z,14.90
2017-10-25T16:40:01.475Z,15.00
2017-10-25T16:42:31.434Z,14.80
2017-10-25T16:44:59.962Z,14.90
2017-10-25T16:47:27.684Z,14.90
2017-10-25T16:50:01.548Z,14.80
2017-10-25T16:52:38.590Z,14.70
2017-10-25T16:55:08.807Z,14.80
2017-10-25T16:57:36.419Z,14.80
2017-10-25T17:00:04.093Z,14.90
2017-10-25T17:02:32.066Z,14.90
2017-10-25T17:04:59.633Z,14.80
2017-10-25T17:07:27.380Z,14.90
2017-10-25T17:09:56.584Z,14.90
2017-10-25T17:12:24.263Z,14.90
2017-10-25T17:14:52.506Z,14.80
2017-10-25T17:17:24.902Z,14.80
2017-10-25T17:19:57.209Z,14.80
2017-10-25T17:22:25.573Z,15.00
2017-10-25T17:24:55.186Z,15.00
2017-10-25T17:27:22.981Z,15.00
2017-10-25T17:29:50.846Z,14.90
2017-10-25T17:32:19.191Z,14.90
2017-10-25T17:34:50.307Z,14.90
2017-10-25T17:37:19.354Z,14.90
2017-10-25T17:39:47.673Z,14.80
2017-10-25T17:42:15.240Z,14.80
2017-10-25T17:44:42.946Z,14.70
2017-10-25T17:47:10.494Z,14.80
2017-10-25T17:49:38.050Z,14.80
2017-10-25T17:52:05.584Z,14.70
2017-10-25T17:54:33.161Z,14.80
2017-10-25T17:57:00.689Z,14.70
2017-10-25T17:59:28.607Z,14.60
2017-10-25T18:01:56.178Z,14.70
2017-10-25T18:04:23.718Z,14.60
2017-10-25T18:06:51.250Z,14.60
2017-10-25T18:09:19.575Z,14.60
2017-10-25T18:11:47.898Z,14.60
2017-10-25T18:14:15.485Z,14.60
2017-10-25T18:16:43.186Z,14.70
2017-10-25T18:19:10.802Z,14.70
2017-10-25T18:21:38.454Z,14.70
2017-10-25T18:24:06.238Z,14.80
2017-10-25T18:26:33.852Z,14.90
2017-10-25T18:29:01.433Z,14.80
2017-10-25T18:31:29.726Z,14.70
2017-10-25T18:33:58.053Z,14.70
2017-10-25T18:36:25.710Z,14.70
2017-10-25T18:38:53.370Z,14.70
2017-10-25T18:41:21.710Z,14.70
2017-10-25T18:43:49.262Z,14.70
2017-10-25T18:46:17.700Z,14.70
2017-10-25T18:48:47.957Z,14.70
2017-10-25T18:51:15.528Z,14.60
2017-10-25T18:53:43.940Z,14.60
2017-10-25T18:56:31.548Z,14.60
2017-10-25T18:59:03.451Z,14.60
2017-10-25T19:01:33.595Z,14.70
2017-10-25T19:04:11.103Z,14.70
2017-10-25T19:06:39.682Z,14.70
2017-10-25T19:09:08.002Z,14.60
2017-10-25T19:11:36.862Z,14.60
2017-10-25T19:19:38.671Z,14.70
2017-10-25T19:22:09.500Z,14.60
2017-10-25T19:24:39.309Z,14.70
2017-10-25T19:27:06.982Z,14.80
2017-10-25T19:29:36.034Z,14.60
2017-10-25T19:32:08.920Z,14.60
2017-10-25T19:42:55.228Z,14.60
2017-10-25T19:45:29.676Z,14.60
2017-10-25T19:48:00.783Z,14.70
2017-10-25T19:50:30.077Z,14.70
2017-10-25T19:53:03.632Z,14.70
2017-10-25T19:55:35.525Z,14.70
2017-10-25T19:58:12.015Z,14.80
2017-10-25T20:00:51.460Z,14.60
2017-10-25T20:03:24.285Z,14.60
2017-10-25T20:06:01.103Z,14.60
2017-10-25T20:08:38.328Z,14.60
2017-10-25T20:11:13.963Z,14.60
2017-10-25T20:13:56.071Z,14.50
2017-10-25T20:16:32.784Z,14.40
2017-10-25T20:19:12.469Z,14.40
2017-10-25T20:21:54.393Z,14.40
2017-10-25T20:24:32.427Z,14.40
2017-10-25T20:27:07.634Z,14.40
2017-10-25T20:29:43.330Z,14.50
2017-10-25T20:32:22.531Z,14.50
2017-10-25T20:35:08.632Z,14.40
2017-10-25T20:37:46.647Z,14.40
2017-10-25T20:40:25.095Z,14.40
2017-10-25T20:43:00.347Z,14.50
2017-10-25T20:45:27.898Z,14.40
2017-10-25T20:47:55.484Z,14.50
2017-10-25T20:50:23.021Z,14.40
2017-10-25T20:52:50.576Z,14.40
2017-10-25T20:55:18.162Z,14.40
2017-10-25T20:57:46.640Z,14.50
2017-10-25T21:00:14.263Z,14.50
2017-10-25T21:02:42.321Z,14.60
2017-10-25T21:05:10.816Z,14.40
2017-10-25T21:07:45.885Z,14.40
2017-10-25T21:10:15.646Z,14.40
2017-10-25T21:12:47.432Z,14.40
2017-10-25T21:15:26.294Z,14.30
2017-10-25T21:18:00.346Z,14.40
2017-10-25T21:20:35.228Z,14.40
2017-10-25T21:31:04.408Z,14.40
2017-10-25T21:33:35.049Z,14.40
2017-10-25T21:36:03.002Z,14.50
2017-10-25T21:38:30.564Z,14.50
2017-10-25T21:40:58.183Z,14.50
2017-10-25T21:43:25.814Z,14.50
2017-10-25T21:45:53.835Z,14.50
2017-10-25T21:48:21.409Z,14.40
2017-10-25T21:50:49.602Z,14.40
2017-10-25T21:53:17.177Z,14.50
2017-10-25T21:55:44.749Z,14.50
2017-10-25T21:58:12.271Z,14.50
2017-10-25T22:00:39.999Z,14.50
2017-10-25T22:03:13.576Z,14.50
2017-10-25T22:05:50.365Z,14.40
2017-10-25T22:08:29.812Z,14.40
2017-10-25T22:11:08.902Z,14.40
2017-10-25T22:13:37.503Z,14.30
2017-10-25T22:16:05.044Z,14.30
2017-10-25T22:18:32.693Z,14.40
2017-10-25T22:21:00.225Z,14.40
2017-10-25T22:23:27.754Z,14.40
2017-10-25T22:25:55.330Z,14.30
2017-10-25T22:28:23.927Z,14.30
2017-10-25T22:30:51.735Z,14.30
2017-10-25T22:33:19.323Z,14.20
2017-10-25T22:35:47.635Z,14.40
2017-10-25T22:38:15.224Z,14.40
2017-10-25T22:40:42.752Z,14.40
2017-10-25T22:43:11.713Z,14.40
2017-10-25T22:45:40.169Z,14.40
2017-10-25T22:48:08.006Z,14.40
2017-10-25T22:50:37.359Z,14.30
2017-10-25T22:53:07.107Z,14.30
2017-10-25T22:55:41.112Z,14.30
2017-10-25T22:58:09.673Z,14.20
2017-10-25T23:00:54.667Z,14.20
2017-10-25T23:03:22.574Z,14.30
2017-10-25T23:05:50.690Z,14.30
2017-10-25T23:08:18.538Z,14.40
2017-10-25T23:10:46.631Z,14.40
2017-10-25T23:13:14.275Z,14.40
2017-10-25T23:15:41.896Z,14.40
2017-10-25T23:20:59.680Z,14.30
2017-10-25T23:23:38.029Z,14.20
2017-10-25T23:26:14.888Z,14.30
2017-10-25T23:28:45.403Z,14.30
2017-10-25T23:31:18.498Z,14.40
2017-10-25T23:33:52.774Z,14.40
2017-10-25T23:36:22.086Z,14.30
2017-10-25T23:38:49.610Z,14.30
2017-10-25T23:41:19.585Z,14.30
2017-10-25T23:43:47.602Z,14.30
2017-10-25T23:46:15.160Z,14.30
2017-10-25T23:48:42.722Z,14.20
2017-10-25T23:51:10.254Z,14.20
2017-10-25T23:53:37.831Z,14.20
2017-10-25T23:56:05.361Z,14.20
2017-10-25T23:58:32.890Z,14.20
